sensor_id;sensor_type;location;lat;lon;timestamp;P1;durP1;ratioP1;P2;durP2;ratioP2
1382;SDS011;685;47.196;11.880;2023-05-10T00:01:07;2.07;;;0.80;;
1382;SDS011;685;47.196;11.880;2023-05-10T00:03:35;3.93;;;0.70;;
1382;SDS011;685;47.196;11.880;2023-05-10T00:06:02;1.70;;;0.77;;
1382;SDS011;685;47.196;11.880;2023-05-10T00:08:29;1.30;;;0.50;;
1382;SDS011;685;47.196;11.880;2023-05-10T00:10:57;1.70;;;0.73;;
1382;SDS011;685;47.196;11.880;2023-05-10T00:13:25;1.97;;;0.70;;
1382;SDS011;685;47.196;11.880;2023-05-10T00:15:52;1.30;;;0.73;;
1382;SDS011;685;47.196;11.880;2023-05-10T00:18:19;1.70;;;0.80;;
1382;SDS011;685;47.196;11.880;2023-05-10T00:20:46;2.17;;;0.90;;
1382;SDS011;685;47.196;11.880;2023-05-10T00:23:13;1.60;;;0.60;;
1382;SDS011;685;47.196;11.880;2023-05-10T00:25:40;1.77;;;0.90;;
1382;SDS011;685;47.196;11.880;2023-05-10T00:28:08;1.20;;;0.63;;
1382;SDS011;685;47.196;11.880;2023-05-10T00:30:35;1.30;;;0.80;;
1382;SDS011;685;47.196;11.880;2023-05-10T00:33:02;1.10;;;0.83;;
1382;SDS011;685;47.196;11.880;2023-05-10T00:35:29;1.83;;;0.87;;
1382;SDS011;685;47.196;11.880;2023-05-10T00:37:56;1.97;;;0.73;;
1382;SDS011;685;47.196;11.880;2023-05-10T00:40:23;1.20;;;0.70;;
1382;SDS011;685;47.196;11.880;2023-05-10T00:42:50;2.50;;;0.60;;
1382;SDS011;685;47.196;11.880;2023-05-10T00:45:18;1.23;;;0.60;;
1382;SDS011;685;47.196;11.880;2023-05-10T00:47:45;1.20;;;0.60;;
1382;SDS011;685;47.196;11.880;2023-05-10T00:50:12;1.40;;;0.60;;
1382;SDS011;685;47.196;11.880;2023-05-10T00:52:40;1.47;;;0.87;;
1382;SDS011;685;47.196;11.880;2023-05-10T00:55:08;1.63;;;0.63;;
1382;SDS011;685;47.196;11.880;2023-05-10T00:57:37;1.60;;;0.60;;
1382;SDS011;685;47.196;11.880;2023-05-10T01:00:04;1.83;;;0.67;;
1382;SDS011;685;47.196;11.880;2023-05-10T01:02:34;1.30;;;0.80;;
1382;SDS011;685;47.196;11.880;2023-05-10T01:05:01;1.20;;;0.70;;
1382;SDS011;685;47.196;11.880;2023-05-10T01:07:30;1.37;;;0.73;;
1382;SDS011;685;47.196;11.880;2023-05-10T01:09:57;3.00;;;0.90;;
1382;SDS011;685;47.196;11.880;2023-05-10T01:12:24;2.70;;;1.03;;
1382;SDS011;685;47.196;11.880;2023-05-10T01:14:51;1.60;;;0.60;;
1382;SDS011;685;47.196;11.880;2023-05-10T01:17:18;1.50;;;1.10;;
1382;SDS011;685;47.196;11.880;2023-05-10T01:19:47;1.00;;;0.60;;
1382;SDS011;685;47.196;11.880;2023-05-10T01:22:24;1.20;;;0.80;;
1382;SDS011;685;47.196;11.880;2023-05-10T01:25:17;1.23;;;0.77;;
1382;SDS011;685;47.196;11.880;2023-05-10T01:28:21;3.10;;;0.90;;
1382;SDS011;685;47.196;11.880;2023-05-10T01:31:22;2.30;;;1.00;;
1382;SDS011;685;47.196;11.880;2023-05-10T01:34:07;1.13;;;0.73;;
1382;SDS011;685;47.196;11.880;2023-05-10T01:36:38;1.17;;;0.80;;
1382;SDS011;685;47.196;11.880;2023-05-10T01:39:11;1.53;;;1.10;;
1382;SDS011;685;47.196;11.880;2023-05-10T01:41:45;1.30;;;0.90;;
1382;SDS011;685;47.196;11.880;2023-05-10T01:44:29;1.83;;;1.07;;
1382;SDS011;685;47.196;11.880;2023-05-10T01:47:02;2.50;;;1.10;;
1382;SDS011;685;47.196;11.880;2023-05-10T01:49:37;2.00;;;0.97;;
1382;SDS011;685;47.196;11.880;2023-05-10T01:52:08;1.37;;;1.00;;
1382;SDS011;685;47.196;11.880;2023-05-10T01:54:38;1.93;;;1.40;;
1382;SDS011;685;47.196;11.880;2023-05-10T01:57:08;1.30;;;0.90;;
1382;SDS011;685;47.196;11.880;2023-05-10T01:59:37;1.80;;;1.40;;
1382;SDS011;685;47.196;11.880;2023-05-10T02:02:06;1.60;;;1.07;;
1382;SDS011;685;47.196;11.880;2023-05-10T02:04:38;1.40;;;1.10;;
1382;SDS011;685;47.196;11.880;2023-05-10T02:07:07;1.90;;;1.20;;
1382;SDS011;685;47.196;11.880;2023-05-10T02:09:35;1.93;;;1.33;;
1382;SDS011;685;47.196;11.880;2023-05-10T02:12:04;1.80;;;1.20;;
1382;SDS011;685;47.196;11.880;2023-05-10T02:14:34;2.87;;;1.70;;
1382;SDS011;685;47.196;11.880;2023-05-10T02:17:03;2.00;;;1.70;;
1382;SDS011;685;47.196;11.880;2023-05-10T02:19:32;4.57;;;2.10;;
1382;SDS011;685;47.196;11.880;2023-05-10T02:22:01;3.10;;;1.90;;
1382;SDS011;685;47.196;11.880;2023-05-10T02:24:30;2.10;;;1.50;;
1382;SDS011;685;47.196;11.880;2023-05-10T02:26:59;2.53;;;1.83;;
1382;SDS011;685;47.196;11.880;2023-05-10T02:29:28;2.20;;;1.53;;
1382;SDS011;685;47.196;11.880;2023-05-10T02:31:57;3.57;;;2.40;;
1382;SDS011;685;47.196;11.880;2023-05-10T02:34:26;4.53;;;2.30;;
1382;SDS011;685;47.196;11.880;2023-05-10T02:36:54;3.00;;;2.37;;
1382;SDS011;685;47.196;11.880;2023-05-10T02:39:23;3.53;;;2.27;;
1382;SDS011;685;47.196;11.880;2023-05-10T02:41:53;4.93;;;2.67;;
1382;SDS011;685;47.196;11.880;2023-05-10T02:44:21;3.03;;;2.67;;
1382;SDS011;685;47.196;11.880;2023-05-10T02:46:49;3.93;;;3.03;;
1382;SDS011;685;47.196;11.880;2023-05-10T02:49:17;2.40;;;2.03;;
1382;SDS011;685;47.196;11.880;2023-05-10T02:51:47;2.00;;;1.80;;
1382;SDS011;685;47.196;11.880;2023-05-10T02:54:18;3.33;;;2.43;;
1382;SDS011;685;47.196;11.880;2023-05-10T02:56:50;3.50;;;3.17;;
1382;SDS011;685;47.196;11.880;2023-05-10T02:59:22;2.63;;;2.43;;
1382;SDS011;685;47.196;11.880;2023-05-10T03:01:49;2.33;;;2.13;;
1382;SDS011;685;47.196;11.880;2023-05-10T03:04:16;2.57;;;1.80;;
1382;SDS011;685;47.196;11.880;2023-05-10T03:06:43;3.13;;;2.30;;
1382;SDS011;685;47.196;11.880;2023-05-10T03:09:10;8.60;;;2.60;;
1382;SDS011;685;47.196;11.880;2023-05-10T03:11:43;3.20;;;2.57;;
1382;SDS011;685;47.196;11.880;2023-05-10T03:14:21;5.47;;;2.70;;
1382;SDS011;685;47.196;11.880;2023-05-10T03:16:56;4.37;;;3.43;;
1382;SDS011;685;47.196;11.880;2023-05-10T03:19:27;3.73;;;3.10;;
1382;SDS011;685;47.196;11.880;2023-05-10T03:21:59;3.90;;;3.33;;
1382;SDS011;685;47.196;11.880;2023-05-10T03:24:29;3.50;;;3.20;;
1382;SDS011;685;47.196;11.880;2023-05-10T03:26:58;3.20;;;2.83;;
1382;SDS011;685;47.196;11.880;2023-05-10T03:29:29;4.07;;;3.20;;
1382;SDS011;685;47.196;11.880;2023-05-10T03:31:57;3.47;;;3.00;;
1382;SDS011;685;47.196;11.880;2023-05-10T03:34:25;3.73;;;3.10;;
1382;SDS011;685;47.196;11.880;2023-05-10T03:36:52;3.70;;;2.80;;
1382;SDS011;685;47.196;11.880;2023-05-10T03:39:19;4.03;;;3.03;;
1382;SDS011;685;47.196;11.880;2023-05-10T03:41:46;3.20;;;2.90;;
1382;SDS011;685;47.196;11.880;2023-05-10T03:44:13;3.27;;;2.97;;
1382;SDS011;685;47.196;11.880;2023-05-10T03:46:41;3.20;;;2.90;;
1382;SDS011;685;47.196;11.880;2023-05-10T03:49:08;2.97;;;2.40;;
1382;SDS011;685;47.196;11.880;2023-05-10T03:51:35;3.47;;;2.33;;
1382;SDS011;685;47.196;11.880;2023-05-10T03:54:02;2.90;;;2.57;;
1382;SDS011;685;47.196;11.880;2023-05-10T03:56:29;3.33;;;3.03;;
1382;SDS011;685;47.196;11.880;2023-05-10T03:58:56;3.80;;;2.20;;
1382;SDS011;685;47.196;11.880;2023-05-10T04:01:23;4.93;;;2.77;;
1382;SDS011;685;47.196;11.880;2023-05-10T04:03:51;4.40;;;3.10;;
1382;SDS011;685;47.196;11.880;2023-05-10T04:06:18;3.40;;;3.10;;
1382;SDS011;685;47.196;11.880;2023-05-10T04:08:45;3.30;;;3.00;;
1382;SDS011;685;47.196;11.880;2023-05-10T04:11:12;4.10;;;3.70;;
1382;SDS011;685;47.196;11.880;2023-05-10T04:13:39;3.40;;;3.10;;
1382;SDS011;685;47.196;11.880;2023-05-10T04:16:06;4.00;;;3.60;;
1382;SDS011;685;47.196;11.880;2023-05-10T04:18:33;3.50;;;3.20;;
1382;SDS011;685;47.196;11.880;2023-05-10T04:21:01;3.43;;;3.03;;
1382;SDS011;685;47.196;11.880;2023-05-10T04:23:28;3.30;;;2.90;;
1382;SDS011;685;47.196;11.880;2023-05-10T04:25:58;4.00;;;2.80;;
1382;SDS011;685;47.196;11.880;2023-05-10T04:28:26;3.03;;;2.73;;
1382;SDS011;685;47.196;11.880;2023-05-10T04:30:53;3.43;;;2.43;;
1382;SDS011;685;47.196;11.880;2023-05-10T04:33:27;3.90;;;2.70;;
1382;SDS011;685;47.196;11.880;2023-05-10T04:35:54;3.67;;;2.90;;
1382;SDS011;685;47.196;11.880;2023-05-10T04:38:22;3.43;;;2.60;;
1382;SDS011;685;47.196;11.880;2023-05-10T04:40:49;3.20;;;2.90;;
1382;SDS011;685;47.196;11.880;2023-05-10T04:43:16;3.37;;;2.63;;
1382;SDS011;685;47.196;11.880;2023-05-10T04:45:43;2.90;;;2.60;;
1382;SDS011;685;47.196;11.880;2023-05-10T04:48:10;5.07;;;3.83;;
1382;SDS011;685;47.196;11.880;2023-05-10T04:50:37;3.33;;;2.67;;
1382;SDS011;685;47.196;11.880;2023-05-10T04:53:05;3.20;;;2.90;;
1382;SDS011;685;47.196;11.880;2023-05-10T04:55:33;4.20;;;3.60;;
1382;SDS011;685;47.196;11.880;2023-05-10T04:58:00;4.10;;;3.70;;
1382;SDS011;685;47.196;11.880;2023-05-10T05:00:27;4.03;;;3.63;;
1382;SDS011;685;47.196;11.880;2023-05-10T05:02:54;5.90;;;4.10;;
1382;SDS011;685;47.196;11.880;2023-05-10T05:05:21;4.00;;;3.43;;
1382;SDS011;685;47.196;11.880;2023-05-10T05:07:48;4.70;;;4.17;;
1382;SDS011;685;47.196;11.880;2023-05-10T05:10:15;3.80;;;3.40;;
1382;SDS011;685;47.196;11.880;2023-05-10T05:12:44;4.10;;;3.70;;
1382;SDS011;685;47.196;11.880;2023-05-10T05:15:10;5.13;;;3.67;;
1382;SDS011;685;47.196;11.880;2023-05-10T05:17:37;4.20;;;3.43;;
1382;SDS011;685;47.196;11.880;2023-05-10T05:20:05;4.37;;;3.57;;
1382;SDS011;685;47.196;11.880;2023-05-10T05:22:33;6.70;;;4.50;;
1382;SDS011;685;47.196;11.880;2023-05-10T05:24:59;4.60;;;4.20;;
1382;SDS011;685;47.196;11.880;2023-05-10T05:27:27;4.40;;;4.00;;
1382;SDS011;685;47.196;11.880;2023-05-10T05:29:56;7.37;;;6.60;;
1382;SDS011;685;47.196;11.880;2023-05-10T05:32:23;3.77;;;3.47;;
1382;SDS011;685;47.196;11.880;2023-05-10T05:34:50;5.10;;;4.07;;
1382;SDS011;685;47.196;11.880;2023-05-10T05:37:18;7.27;;;4.33;;
1382;SDS011;685;47.196;11.880;2023-05-10T05:39:46;4.70;;;4.20;;
1382;SDS011;685;47.196;11.880;2023-05-10T05:42:13;5.27;;;4.23;;
1382;SDS011;685;47.196;11.880;2023-05-10T05:44:41;4.60;;;4.13;;
1382;SDS011;685;47.196;11.880;2023-05-10T05:47:10;5.37;;;4.33;;
1382;SDS011;685;47.196;11.880;2023-05-10T05:49:37;4.37;;;3.33;;
1382;SDS011;685;47.196;11.880;2023-05-10T05:52:04;6.10;;;3.97;;
1382;SDS011;685;47.196;11.880;2023-05-10T05:54:31;4.20;;;3.33;;
1382;SDS011;685;47.196;11.880;2023-05-10T05:56:58;4.37;;;3.37;;
1382;SDS011;685;47.196;11.880;2023-05-10T05:59:25;4.73;;;3.80;;
1382;SDS011;685;47.196;11.880;2023-05-10T06:01:52;6.17;;;4.17;;
1382;SDS011;685;47.196;11.880;2023-05-10T06:04:21;5.50;;;4.20;;
1382;SDS011;685;47.196;11.880;2023-05-10T06:06:48;5.00;;;3.90;;
1382;SDS011;685;47.196;11.880;2023-05-10T06:09:15;4.50;;;3.00;;
1382;SDS011;685;47.196;11.880;2023-05-10T06:11:41;3.83;;;2.70;;
1382;SDS011;685;47.196;11.880;2023-05-10T06:14:08;2.50;;;2.30;;
1382;SDS011;685;47.196;11.880;2023-05-10T06:16:35;1.93;;;1.53;;
1382;SDS011;685;47.196;11.880;2023-05-10T06:19:02;2.63;;;1.57;;
1382;SDS011;685;47.196;11.880;2023-05-10T06:21:30;1.47;;;0.87;;
1382;SDS011;685;47.196;11.880;2023-05-10T06:23:57;5.23;;;1.40;;
1382;SDS011;685;47.196;11.880;2023-05-10T06:26:24;2.97;;;0.80;;
1382;SDS011;685;47.196;11.880;2023-05-10T06:28:51;1.90;;;1.10;;
1382;SDS011;685;47.196;11.880;2023-05-10T06:31:18;1.70;;;1.23;;
1382;SDS011;685;47.196;11.880;2023-05-10T06:33:45;1.70;;;1.30;;
1382;SDS011;685;47.196;11.880;2023-05-10T06:36:12;2.20;;;1.60;;
1382;SDS011;685;47.196;11.880;2023-05-10T06:38:40;2.90;;;1.57;;
1382;SDS011;685;47.196;11.880;2023-05-10T06:41:07;7.00;;;4.90;;
1382;SDS011;685;47.196;11.880;2023-05-10T06:43:34;4.80;;;3.20;;
1382;SDS011;685;47.196;11.880;2023-05-10T06:46:04;2.63;;;2.07;;
1382;SDS011;685;47.196;11.880;2023-05-10T06:48:31;1.90;;;1.47;;
1382;SDS011;685;47.196;11.880;2023-05-10T06:50:59;4.43;;;1.50;;
1382;SDS011;685;47.196;11.880;2023-05-10T06:53:25;2.43;;;1.00;;
1382;SDS011;685;47.196;11.880;2023-05-10T06:55:54;5.00;;;1.10;;
1382;SDS011;685;47.196;11.880;2023-05-10T06:58:21;4.13;;;2.13;;
1382;SDS011;685;47.196;11.880;2023-05-10T07:00:47;3.87;;;1.70;;
1382;SDS011;685;47.196;11.880;2023-05-10T07:03:14;2.03;;;1.67;;
1382;SDS011;685;47.196;11.880;2023-05-10T07:05:41;2.00;;;1.00;;
1382;SDS011;685;47.196;11.880;2023-05-10T07:08:08;1.23;;;0.90;;
1382;SDS011;685;47.196;11.880;2023-05-10T07:10:35;1.00;;;0.60;;
1382;SDS011;685;47.196;11.880;2023-05-10T07:13:03;1.20;;;0.63;;
1382;SDS011;685;47.196;11.880;2023-05-10T07:15:30;1.70;;;0.70;;
1382;SDS011;685;47.196;11.880;2023-05-10T07:17:58;1.53;;;0.70;;
1382;SDS011;685;47.196;11.880;2023-05-10T07:20:25;1.30;;;0.60;;
1382;SDS011;685;47.196;11.880;2023-05-10T07:22:52;1.87;;;0.97;;
1382;SDS011;685;47.196;11.880;2023-05-10T07:25:19;3.70;;;1.90;;
1382;SDS011;685;47.196;11.880;2023-05-10T07:27:46;3.80;;;1.60;;
1382;SDS011;685;47.196;11.880;2023-05-10T07:30:14;1.50;;;1.07;;
1382;SDS011;685;47.196;11.880;2023-05-10T07:32:41;3.30;;;1.83;;
1382;SDS011;685;47.196;11.880;2023-05-10T07:35:08;2.23;;;1.30;;
1382;SDS011;685;47.196;11.880;2023-05-10T07:37:35;1.30;;;0.90;;
1382;SDS011;685;47.196;11.880;2023-05-10T07:40:02;2.87;;;1.13;;
1382;SDS011;685;47.196;11.880;2023-05-10T07:42:29;4.43;;;1.67;;
1382;SDS011;685;47.196;11.880;2023-05-10T07:44:56;1.83;;;1.23;;
1382;SDS011;685;47.196;11.880;2023-05-10T07:47:25;2.97;;;1.67;;
1382;SDS011;685;47.196;11.880;2023-05-10T07:49:52;1.60;;;1.30;;
1382;SDS011;685;47.196;11.880;2023-05-10T07:52:18;2.23;;;1.03;;
1382;SDS011;685;47.196;11.880;2023-05-10T07:54:46;1.43;;;0.90;;
1382;SDS011;685;47.196;11.880;2023-05-10T07:57:12;1.70;;;1.10;;
1382;SDS011;685;47.196;11.880;2023-05-10T07:59:42;1.67;;;1.10;;
1382;SDS011;685;47.196;11.880;2023-05-10T08:02:10;2.50;;;0.93;;
1382;SDS011;685;47.196;11.880;2023-05-10T08:04:38;1.80;;;0.90;;
1382;SDS011;685;47.196;11.880;2023-05-10T08:07:05;1.77;;;1.10;;
1382;SDS011;685;47.196;11.880;2023-05-10T08:09:32;2.60;;;1.13;;
1382;SDS011;685;47.196;11.880;2023-05-10T08:11:59;1.07;;;0.70;;
1382;SDS011;685;47.196;11.880;2023-05-10T08:14:26;1.00;;;0.63;;
1382;SDS011;685;47.196;11.880;2023-05-10T08:16:54;1.00;;;0.70;;
1382;SDS011;685;47.196;11.880;2023-05-10T08:19:21;1.40;;;0.90;;
1382;SDS011;685;47.196;11.880;2023-05-10T08:21:50;2.03;;;1.17;;
1382;SDS011;685;47.196;11.880;2023-05-10T08:24:18;1.20;;;0.80;;
1382;SDS011;685;47.196;11.880;2023-05-10T08:26:45;1.70;;;1.13;;
1382;SDS011;685;47.196;11.880;2023-05-10T08:29:12;1.90;;;1.00;;
1382;SDS011;685;47.196;11.880;2023-05-10T08:31:39;3.93;;;0.90;;
1382;SDS011;685;47.196;11.880;2023-05-10T08:34:06;1.90;;;0.87;;
1382;SDS011;685;47.196;11.880;2023-05-10T08:36:33;1.50;;;1.00;;
1382;SDS011;685;47.196;11.880;2023-05-10T08:39:02;2.03;;;0.93;;
1382;SDS011;685;47.196;11.880;2023-05-10T08:41:29;1.50;;;0.87;;
1382;SDS011;685;47.196;11.880;2023-05-10T08:43:59;1.70;;;1.10;;
1382;SDS011;685;47.196;11.880;2023-05-10T08:46:30;1.80;;;1.27;;
1382;SDS011;685;47.196;11.880;2023-05-10T08:48:59;1.63;;;1.17;;
1382;SDS011;685;47.196;11.880;2023-05-10T08:51:31;1.53;;;1.03;;
1382;SDS011;685;47.196;11.880;2023-05-10T08:54:03;1.40;;;0.73;;
1382;SDS011;685;47.196;11.880;2023-05-10T08:56:31;2.67;;;0.97;;
1382;SDS011;685;47.196;11.880;2023-05-10T08:58:58;1.40;;;0.93;;
1382;SDS011;685;47.196;11.880;2023-05-10T09:01:25;2.03;;;1.00;;
1382;SDS011;685;47.196;11.880;2023-05-10T09:03:53;2.07;;;1.77;;
1382;SDS011;685;47.196;11.880;2023-05-10T09:06:21;1.90;;;1.50;;
1382;SDS011;685;47.196;11.880;2023-05-10T09:08:48;2.37;;;1.50;;
1382;SDS011;685;47.196;11.880;2023-05-10T09:11:17;2.03;;;1.70;;
1382;SDS011;685;47.196;11.880;2023-05-10T09:13:44;1.60;;;1.50;;
1382;SDS011;685;47.196;11.880;2023-05-10T09:16:12;1.93;;;1.17;;
1382;SDS011;685;47.196;11.880;2023-05-10T09:18:38;3.20;;;1.23;;
1382;SDS011;685;47.196;11.880;2023-05-10T09:21:05;1.27;;;1.10;;
1382;SDS011;685;47.196;11.880;2023-05-10T09:23:32;7.53;;;5.37;;
1382;SDS011;685;47.196;11.880;2023-05-10T09:26:02;5.53;;;2.40;;
1382;SDS011;685;47.196;11.880;2023-05-10T09:28:32;2.00;;;1.10;;
1382;SDS011;685;47.196;11.880;2023-05-10T09:30:59;1.80;;;1.00;;
1382;SDS011;685;47.196;11.880;2023-05-10T09:33:26;2.20;;;1.13;;
1382;SDS011;685;47.196;11.880;2023-05-10T09:35:53;1.63;;;1.10;;
1382;SDS011;685;47.196;11.880;2023-05-10T09:38:20;1.43;;;0.63;;
1382;SDS011;685;47.196;11.880;2023-05-10T09:40:50;2.07;;;0.90;;
1382;SDS011;685;47.196;11.880;2023-05-10T09:43:20;1.47;;;0.87;;
1382;SDS011;685;47.196;11.880;2023-05-10T09:45:49;4.70;;;1.20;;
1382;SDS011;685;47.196;11.880;2023-05-10T09:48:15;1.43;;;1.00;;
1382;SDS011;685;47.196;11.880;2023-05-10T09:50:42;1.73;;;1.13;;
1382;SDS011;685;47.196;11.880;2023-05-10T09:53:09;1.10;;;0.60;;
1382;SDS011;685;47.196;11.880;2023-05-10T09:55:42;0.97;;;0.47;;
1382;SDS011;685;47.196;11.880;2023-05-10T09:58:10;1.47;;;0.50;;
1382;SDS011;685;47.196;11.880;2023-05-10T10:00:38;1.30;;;0.50;;
1382;SDS011;685;47.196;11.880;2023-05-10T10:03:11;1.40;;;0.60;;
1382;SDS011;685;47.196;11.880;2023-05-10T10:05:40;3.00;;;0.70;;
1382;SDS011;685;47.196;11.880;2023-05-10T10:08:08;1.37;;;0.50;;
1382;SDS011;685;47.196;11.880;2023-05-10T10:10:36;1.00;;;0.57;;
1382;SDS011;685;47.196;11.880;2023-05-10T10:13:03;1.67;;;0.50;;
1382;SDS011;685;47.196;11.880;2023-05-10T10:15:30;2.37;;;1.03;;
1382;SDS011;685;47.196;11.880;2023-05-10T10:17:59;1.10;;;0.70;;
1382;SDS011;685;47.196;11.880;2023-05-10T10:20:27;1.03;;;0.57;;
1382;SDS011;685;47.196;11.880;2023-05-10T10:22:54;1.87;;;1.00;;
1382;SDS011;685;47.196;11.880;2023-05-10T10:25:21;3.00;;;0.97;;
1382;SDS011;685;47.196;11.880;2023-05-10T10:27:53;2.57;;;1.20;;
1382;SDS011;685;47.196;11.880;2023-05-10T10:30:31;1.30;;;0.63;;
1382;SDS011;685;47.196;11.880;2023-05-10T10:33:22;1.10;;;0.60;;
1382;SDS011;685;47.196;11.880;2023-05-10T10:36:01;1.10;;;0.60;;
1382;SDS011;685;47.196;11.880;2023-05-10T10:38:35;1.30;;;0.67;;
1382;SDS011;685;47.196;11.880;2023-05-10T10:41:08;1.80;;;0.93;;
1382;SDS011;685;47.196;11.880;2023-05-10T10:43:37;1.60;;;0.73;;
1382;SDS011;685;47.196;11.880;2023-05-10T10:46:10;1.10;;;0.77;;
1382;SDS011;685;47.196;11.880;2023-05-10T10:48:39;1.60;;;0.90;;
1382;SDS011;685;47.196;11.880;2023-05-10T10:51:08;1.70;;;0.70;;
1382;SDS011;685;47.196;11.880;2023-05-10T10:53:36;1.30;;;0.80;;
1382;SDS011;685;47.196;11.880;2023-05-10T10:56:05;1.40;;;0.73;;
1382;SDS011;685;47.196;11.880;2023-05-10T10:58:34;1.20;;;0.70;;
1382;SDS011;685;47.196;11.880;2023-05-10T11:01:12;1.27;;;0.80;;
1382;SDS011;685;47.196;11.880;2023-05-10T11:03:41;1.00;;;0.60;;
1382;SDS011;685;47.196;11.880;2023-05-10T11:06:32;1.20;;;0.83;;
1382;SDS011;685;47.196;11.880;2023-05-10T11:09:04;2.03;;;0.83;;
1382;SDS011;685;47.196;11.880;2023-05-10T11:11:32;1.70;;;1.00;;
1382;SDS011;685;47.196;11.880;2023-05-10T11:14:02;1.30;;;0.83;;
1382;SDS011;685;47.196;11.880;2023-05-10T11:16:29;1.50;;;0.90;;
1382;SDS011;685;47.196;11.880;2023-05-10T11:19:07;1.30;;;0.83;;
1382;SDS011;685;47.196;11.880;2023-05-10T11:21:45;1.40;;;1.00;;
1382;SDS011;685;47.196;11.880;2023-05-10T11:24:14;4.20;;;0.87;;
1382;SDS011;685;47.196;11.880;2023-05-10T11:26:42;1.13;;;0.67;;
1382;SDS011;685;47.196;11.880;2023-05-10T11:29:09;1.20;;;0.70;;
1382;SDS011;685;47.196;11.880;2023-05-10T11:31:41;1.20;;;0.90;;
1382;SDS011;685;47.196;11.880;2023-05-10T11:34:10;1.40;;;0.80;;
1382;SDS011;685;47.196;11.880;2023-05-10T11:36:37;1.40;;;0.90;;
1382;SDS011;685;47.196;11.880;2023-05-10T11:39:06;2.63;;;1.00;;
1382;SDS011;685;47.196;11.880;2023-05-10T11:41:32;1.20;;;0.80;;
1382;SDS011;685;47.196;11.880;2023-05-10T11:44:00;1.80;;;0.93;;
1382;SDS011;685;47.196;11.880;2023-05-10T11:46:28;1.17;;;0.73;;
1382;SDS011;685;47.196;11.880;2023-05-10T11:48:55;2.33;;;0.90;;
1382;SDS011;685;47.196;11.880;2023-05-10T11:51:26;1.93;;;0.83;;
1382;SDS011;685;47.196;11.880;2023-05-10T11:53:54;2.23;;;1.20;;
1382;SDS011;685;47.196;11.880;2023-05-10T11:56:23;1.30;;;0.90;;
1382;SDS011;685;47.196;11.880;2023-05-10T11:58:52;2.13;;;1.20;;
1382;SDS011;685;47.196;11.880;2023-05-10T12:01:20;5.80;;;1.27;;
1382;SDS011;685;47.196;11.880;2023-05-10T12:03:48;1.30;;;0.80;;
1382;SDS011;685;47.196;11.880;2023-05-10T12:06:16;1.60;;;1.20;;
1382;SDS011;685;47.196;11.880;2023-05-10T12:08:45;2.60;;;0.80;;
1382;SDS011;685;47.196;11.880;2023-05-10T12:11:13;1.20;;;0.70;;
1382;SDS011;685;47.196;11.880;2023-05-10T12:13:42;1.50;;;1.03;;
1382;SDS011;685;47.196;11.880;2023-05-10T12:16:15;1.33;;;0.80;;
1382;SDS011;685;47.196;11.880;2023-05-10T12:18:42;1.67;;;0.90;;
1382;SDS011;685;47.196;11.880;2023-05-10T12:21:10;1.47;;;0.80;;
1382;SDS011;685;47.196;11.880;2023-05-10T12:23:37;1.40;;;0.87;;
1382;SDS011;685;47.196;11.880;2023-05-10T12:26:05;1.80;;;0.90;;
1382;SDS011;685;47.196;11.880;2023-05-10T12:28:32;1.30;;;0.70;;
1382;SDS011;685;47.196;11.880;2023-05-10T12:31:01;1.90;;;1.00;;
1382;SDS011;685;47.196;11.880;2023-05-10T12:33:35;1.20;;;0.80;;
1382;SDS011;685;47.196;11.880;2023-05-10T12:36:03;1.40;;;0.93;;
1382;SDS011;685;47.196;11.880;2023-05-10T12:38:32;1.67;;;0.90;;
1382;SDS011;685;47.196;11.880;2023-05-10T12:41:00;1.67;;;0.80;;
1382;SDS011;685;47.196;11.880;2023-05-10T12:43:28;1.83;;;0.70;;
1382;SDS011;685;47.196;11.880;2023-05-10T12:45:56;1.10;;;0.67;;
1382;SDS011;685;47.196;11.880;2023-05-10T12:48:24;1.30;;;0.87;;
1382;SDS011;685;47.196;11.880;2023-05-10T12:50:53;1.60;;;1.00;;
1382;SDS011;685;47.196;11.880;2023-05-10T12:53:20;1.10;;;0.80;;
1382;SDS011;685;47.196;11.880;2023-05-10T12:55:47;1.27;;;0.80;;
1382;SDS011;685;47.196;11.880;2023-05-10T12:58:14;1.17;;;0.83;;
1382;SDS011;685;47.196;11.880;2023-05-10T13:00:41;1.27;;;0.77;;
1382;SDS011;685;47.196;11.880;2023-05-10T13:03:08;1.27;;;0.60;;
1382;SDS011;685;47.196;11.880;2023-05-10T13:05:37;1.10;;;0.50;;
1382;SDS011;685;47.196;11.880;2023-05-10T13:08:04;1.10;;;0.80;;
1382;SDS011;685;47.196;11.880;2023-05-10T13:10:31;2.20;;;1.30;;
1382;SDS011;685;47.196;11.880;2023-05-10T13:12:58;1.47;;;1.10;;
1382;SDS011;685;47.196;11.880;2023-05-10T13:15:25;1.50;;;0.97;;
1382;SDS011;685;47.196;11.880;2023-05-10T13:17:53;1.93;;;1.37;;
1382;SDS011;685;47.196;11.880;2023-05-10T13:20:20;1.67;;;1.10;;
1382;SDS011;685;47.196;11.880;2023-05-10T13:22:48;2.00;;;1.20;;
1382;SDS011;685;47.196;11.880;2023-05-10T13:25:15;3.43;;;0.93;;
1382;SDS011;685;47.196;11.880;2023-05-10T13:27:42;2.53;;;2.27;;
1382;SDS011;685;47.196;11.880;2023-05-10T13:30:09;1.77;;;1.30;;
1382;SDS011;685;47.196;11.880;2023-05-10T13:32:37;1.20;;;0.50;;
1382;SDS011;685;47.196;11.880;2023-05-10T13:35:05;1.20;;;0.80;;
1382;SDS011;685;47.196;11.880;2023-05-10T13:37:32;2.40;;;1.40;;
1382;SDS011;685;47.196;11.880;2023-05-10T13:40:03;1.90;;;1.50;;
1382;SDS011;685;47.196;11.880;2023-05-10T13:42:31;1.40;;;1.13;;
1382;SDS011;685;47.196;11.880;2023-05-10T13:44:59;2.13;;;0.90;;
1382;SDS011;685;47.196;11.880;2023-05-10T13:47:26;1.70;;;0.60;;
1382;SDS011;685;47.196;11.880;2023-05-10T13:49:53;1.00;;;0.50;;
1382;SDS011;685;47.196;11.880;2023-05-10T13:52:21;1.00;;;0.50;;
1382;SDS011;685;47.196;11.880;2023-05-10T13:54:47;1.07;;;0.50;;
1382;SDS011;685;47.196;11.880;2023-05-10T13:57:18;1.00;;;0.50;;
1382;SDS011;685;47.196;11.880;2023-05-10T13:59:45;1.00;;;0.50;;
1382;SDS011;685;47.196;11.880;2023-05-10T14:02:12;1.47;;;0.60;;
1382;SDS011;685;47.196;11.880;2023-05-10T14:04:39;1.30;;;0.80;;
1382;SDS011;685;47.196;11.880;2023-05-10T14:07:05;4.13;;;0.67;;
1382;SDS011;685;47.196;11.880;2023-05-10T14:09:33;2.67;;;0.70;;
1382;SDS011;685;47.196;11.880;2023-05-10T14:11:59;2.03;;;0.90;;
1382;SDS011;685;47.196;11.880;2023-05-10T14:14:28;1.87;;;0.90;;
1382;SDS011;685;47.196;11.880;2023-05-10T14:16:55;1.40;;;0.97;;
1382;SDS011;685;47.196;11.880;2023-05-10T14:19:22;1.70;;;1.20;;
1382;SDS011;685;47.196;11.880;2023-05-10T14:21:49;1.53;;;0.90;;
1382;SDS011;685;47.196;11.880;2023-05-10T14:24:17;2.63;;;1.10;;
1382;SDS011;685;47.196;11.880;2023-05-10T14:26:43;1.73;;;1.13;;
1382;SDS011;685;47.196;11.880;2023-05-10T14:29:10;2.40;;;1.13;;
1382;SDS011;685;47.196;11.880;2023-05-10T14:31:39;2.10;;;1.90;;
1382;SDS011;685;47.196;11.880;2023-05-10T14:34:06;3.03;;;1.60;;
1382;SDS011;685;47.196;11.880;2023-05-10T14:36:33;1.50;;;1.13;;
1382;SDS011;685;47.196;11.880;2023-05-10T14:39:00;1.67;;;1.10;;
1382;SDS011;685;47.196;11.880;2023-05-10T14:41:27;1.43;;;1.17;;
1382;SDS011;685;47.196;11.880;2023-05-10T14:43:55;2.93;;;1.00;;
1382;SDS011;685;47.196;11.880;2023-05-10T14:46:22;1.67;;;1.20;;
1382;SDS011;685;47.196;11.880;2023-05-10T14:48:50;1.83;;;0.90;;
1382;SDS011;685;47.196;11.880;2023-05-10T14:51:17;1.83;;;1.10;;
1382;SDS011;685;47.196;11.880;2023-05-10T14:53:46;2.27;;;1.00;;
1382;SDS011;685;47.196;11.880;2023-05-10T14:56:13;2.70;;;1.03;;
1382;SDS011;685;47.196;11.880;2023-05-10T14:58:40;1.33;;;0.67;;
1382;SDS011;685;47.196;11.880;2023-05-10T15:01:07;1.13;;;0.73;;
1382;SDS011;685;47.196;11.880;2023-05-10T15:03:34;1.63;;;1.10;;
1382;SDS011;685;47.196;11.880;2023-05-10T15:06:03;1.67;;;1.30;;
1382;SDS011;685;47.196;11.880;2023-05-10T15:08:30;1.20;;;0.80;;
1382;SDS011;685;47.196;11.880;2023-05-10T15:10:57;1.53;;;1.07;;
1382;SDS011;685;47.196;11.880;2023-05-10T15:13:24;1.73;;;1.03;;
1382;SDS011;685;47.196;11.880;2023-05-10T15:15:51;1.10;;;0.80;;
1382;SDS011;685;47.196;11.880;2023-05-10T15:18:18;1.47;;;0.90;;
1382;SDS011;685;47.196;11.880;2023-05-10T15:20:45;1.33;;;1.10;;
1382;SDS011;685;47.196;11.880;2023-05-10T15:23:13;1.30;;;0.90;;